createdAt,value
2022-11-21T00:00:59.144Z,62.00
2022-11-21T00:03:29.564Z,60.77
2022-11-21T00:06:05.967Z,59.06
2022-11-21T00:08:36.520Z,58.53
2022-11-21T00:11:07.509Z,61.69
2022-11-21T00:13:38.414Z,66.02
2022-11-21T00:16:10.188Z,65.25
2022-11-21T00:18:41.848Z,61.21
2022-11-21T00:21:13.822Z,60.08
2022-11-21T00:23:44.612Z,57.79
2022-11-21T00:26:15.885Z,59.60
2022-11-21T00:28:46.287Z,61.60
2022-11-21T00:31:23.912Z,65.25
2022-11-21T00:33:54.533Z,67.05
2022-11-21T00:36:29.132Z,64.72
2022-11-21T00:39:03.951Z,64.08
2022-11-21T00:41:39.132Z,62.55
2022-11-21T00:44:09.855Z,61.06
2022-11-21T00:46:40.655Z,57.61
2022-11-21T00:49:11.577Z,58.88
2022-11-21T00:51:46.563Z,64.15
2022-11-21T00:54:17.433Z,65.15
2022-11-21T00:56:47.925Z,62.50
2022-11-21T00:59:23.618Z,58.71
2022-11-21T01:01:58.304Z,58.95
2022-11-21T01:04:36.300Z,62.08
2022-11-21T01:07:07.271Z,65.46
2022-11-21T01:09:38.388Z,65.66
2022-11-21T01:12:13.733Z,63.23
2022-11-21T01:14:53.077Z,61.46
2022-11-21T01:17:27.849Z,61.51
2022-11-21T01:20:05.855Z,59.03
2022-11-21T01:22:36.840Z,58.20
2022-11-21T01:25:08.491Z,60.79
2022-11-21T01:27:44.243Z,63.22
2022-11-21T01:30:19.727Z,65.94
2022-11-21T01:32:54.366Z,63.84
2022-11-21T01:35:29.244Z,62.02
2022-11-21T01:38:00.096Z,59.54
2022-11-21T01:40:30.850Z,56.84
2022-11-21T01:43:04.501Z,57.76
2022-11-21T01:45:52.557Z,58.96
2022-11-21T01:48:24.209Z,64.23
2022-11-21T01:50:55.446Z,67.69
2022-11-21T01:53:26.719Z,65.49
2022-11-21T01:55:57.222Z,63.83
2022-11-21T01:58:29.441Z,61.30
2022-11-21T02:01:00.819Z,59.08
2022-11-21T02:03:34.129Z,56.68
2022-11-21T02:06:05.269Z,60.64
2022-11-21T02:08:36.317Z,64.96
2022-11-21T02:11:12.512Z,63.43
2022-11-21T02:13:43.342Z,59.81
2022-11-21T02:16:13.835Z,58.76
2022-11-21T02:18:44.747Z,60.73
2022-11-21T02:21:23.187Z,64.94
2022-11-21T02:24:00.469Z,68.49
2022-11-21T02:26:31.624Z,65.30
2022-11-21T02:29:02.454Z,60.21
2022-11-21T02:31:33.191Z,58.01
2022-11-21T02:34:04.198Z,60.05
2022-11-21T02:36:40.942Z,61.39
2022-11-21T02:39:14.601Z,67.86
2022-11-21T02:41:48.865Z,68.57
2022-11-21T02:44:23.580Z,65.18
2022-11-21T02:46:54.298Z,62.71
2022-11-21T02:49:29.020Z,59.77
2022-11-21T02:51:59.582Z,57.41
2022-11-21T02:54:30.459Z,58.97
2022-11-21T02:57:03.970Z,59.60
2022-11-21T02:59:35.320Z,64.44
2022-11-21T03:02:06.301Z,67.67
2022-11-21T03:04:39.448Z,64.50
2022-11-21T03:07:09.903Z,61.30
2022-11-21T03:09:40.617Z,58.83
2022-11-21T03:12:11.645Z,56.78
2022-11-21T03:14:42.477Z,59.00
2022-11-21T03:17:13.315Z,61.87
2022-11-21T03:19:44.052Z,66.89
2022-11-21T03:22:15.399Z,67.27
2022-11-21T03:24:46.133Z,64.03
2022-11-21T03:27:16.724Z,60.67
2022-11-21T03:29:47.391Z,57.37
2022-11-21T03:32:18.734Z,58.46
2022-11-21T03:34:49.130Z,61.40
2022-11-21T03:37:19.790Z,66.64
2022-11-21T03:39:50.421Z,66.41
2022-11-21T03:42:22.318Z,62.27
2022-11-21T03:44:52.708Z,60.36
2022-11-21T03:47:26.010Z,57.76
2022-11-21T03:49:56.356Z,58.71
2022-11-21T03:52:27.611Z,62.48
2022-11-21T03:54:57.999Z,66.97
2022-11-21T03:57:29.148Z,65.50
2022-11-21T03:59:59.614Z,62.51
2022-11-21T04:02:31.029Z,60.35
2022-11-21T04:05:01.348Z,57.25
2022-11-21T04:07:32.341Z,57.49
2022-11-21T04:10:02.701Z,59.82
2022-11-21T04:12:33.841Z,61.44
2022-11-21T04:15:09.246Z,66.12
2022-11-21T04:17:43.095Z,67.65
2022-11-21T04:20:14.263Z,64.09
2022-11-21T04:22:45.284Z,61.43
2022-11-21T04:25:15.647Z,58.10
2022-11-21T04:27:46.381Z,57.76
2022-11-21T04:30:17.132Z,59.25
2022-11-21T04:32:47.755Z,62.92
2022-11-21T04:35:18.236Z,66.48
2022-11-21T04:37:48.896Z,65.42
2022-11-21T04:40:19.594Z,63.14
2022-11-21T04:42:50.390Z,61.14
2022-11-21T04:45:20.698Z,59.70
2022-11-21T04:47:51.791Z,56.86
2022-11-21T04:50:22.219Z,58.06
2022-11-21T04:52:53.683Z,59.82
2022-11-21T04:55:25.421Z,64.80
2022-11-21T04:57:57.292Z,67.23
2022-11-21T05:00:27.765Z,63.81
2022-11-21T05:03:02.283Z,61.10
2022-11-21T05:05:32.891Z,57.57
2022-11-21T05:08:03.816Z,57.72
2022-11-21T05:10:54.601Z,60.27
2022-11-21T05:13:25.747Z,63.45
2022-11-21T05:15:58.745Z,66.52
2022-11-21T05:18:29.611Z,64.20
2022-11-21T05:21:00.405Z,63.25
2022-11-21T05:23:31.105Z,61.31
2022-11-21T05:26:02.078Z,60.26
2022-11-21T05:28:33.053Z,57.99
2022-11-21T05:31:03.440Z,57.65
2022-11-21T05:33:34.593Z,60.14
2022-11-21T05:36:05.629Z,62.45
2022-11-21T05:38:36.608Z,66.65
2022-11-21T05:41:07.354Z,66.67
2022-11-21T05:43:46.873Z,63.57
2022-11-21T05:46:17.728Z,62.70
2022-11-21T05:48:49.117Z,59.79
2022-11-21T05:51:19.541Z,57.62
2022-11-21T05:53:50.316Z,59.71
2022-11-21T05:56:20.902Z,61.25
2022-11-21T05:58:51.529Z,66.28
2022-11-21T06:01:35.924Z,67.78
2022-11-21T06:04:07.344Z,66.00
2022-11-21T06:06:37.657Z,62.90
2022-11-21T06:09:08.922Z,61.95
2022-11-21T06:11:39.185Z,60.57
2022-11-21T06:14:10.169Z,59.81
2022-11-21T06:16:40.496Z,57.00
2022-11-21T06:19:11.273Z,57.49
2022-11-21T06:21:41.699Z,59.94
2022-11-21T06:24:14.480Z,60.97
2022-11-21T06:26:47.426Z,67.12
2022-11-21T06:29:18.397Z,68.05
2022-11-21T06:31:48.745Z,64.92
2022-11-21T06:34:19.628Z,62.59
2022-11-21T06:36:50.978Z,60.41
2022-11-21T06:39:21.912Z,57.17
2022-11-21T06:41:52.235Z,57.44
2022-11-21T06:44:23.071Z,60.81
2022-11-21T06:46:53.357Z,64.90
2022-11-21T06:49:24.224Z,66.24
2022-11-21T06:51:55.055Z,65.03
2022-11-21T06:54:26.003Z,62.45
2022-11-21T06:56:56.321Z,61.99
2022-11-21T06:59:27.262Z,60.53
2022-11-21T07:01:57.790Z,57.92
2022-11-21T07:04:28.890Z,57.54
2022-11-21T07:06:59.618Z,59.20
2022-11-21T07:09:33.778Z,60.43
2022-11-21T07:12:18.740Z,66.61
2022-11-21T07:14:49.616Z,67.61
2022-11-21T07:17:20.006Z,65.11
2022-11-21T07:19:50.788Z,63.46
2022-11-21T07:22:21.749Z,61.35
2022-11-21T07:24:52.513Z,57.81
2022-11-21T07:27:23.041Z,58.04
2022-11-21T07:29:53.772Z,60.24
2022-11-21T07:32:24.066Z,64.32
2022-11-21T07:34:55.179Z,66.65
2022-11-21T07:37:25.558Z,63.36
2022-11-21T07:39:56.091Z,60.10
2022-11-21T07:42:26.828Z,57.00
2022-11-21T07:44:57.558Z,58.13
2022-11-21T07:47:28.078Z,60.43
2022-11-21T07:49:58.840Z,65.55
2022-11-21T07:52:30.877Z,65.72
2022-11-21T07:55:02.722Z,63.07
2022-11-21T07:57:34.138Z,60.16
2022-11-21T08:00:05.289Z,56.33
2022-11-21T08:02:36.216Z,55.93
2022-11-21T08:05:09.877Z,57.87
2022-11-21T08:07:40.680Z,64.16
2022-11-21T08:10:11.679Z,65.35
2022-11-21T08:12:42.392Z,62.86
2022-11-21T08:15:13.836Z,59.19
2022-11-21T08:17:48.738Z,57.60
2022-11-21T08:20:19.695Z,61.47
2022-11-21T08:22:50.484Z,64.87
2022-11-21T08:25:21.163Z,63.84
2022-11-21T08:27:51.724Z,61.53
2022-11-21T08:30:22.430Z,59.54
2022-11-21T08:32:53.473Z,56.54
2022-11-21T08:35:24.351Z,56.96
2022-11-21T08:37:58.429Z,58.85
2022-11-21T08:40:30.183Z,61.55
2022-11-21T08:43:01.223Z,66.18
2022-11-21T08:45:32.387Z,65.41
2022-11-21T08:48:03.160Z,62.79
2022-11-21T08:50:33.929Z,57.90
2022-11-21T08:53:04.809Z,56.94
2022-11-21T08:55:35.922Z,60.79
2022-11-21T08:58:06.534Z,61.49
2022-11-21T09:00:39.118Z,65.96
2022-11-21T09:03:14.234Z,64.90
2022-11-21T09:05:46.342Z,61.02
2022-11-21T09:08:17.456Z,58.41
2022-11-21T09:10:48.084Z,57.31
2022-11-21T09:13:18.621Z,59.14
2022-11-21T09:16:20.098Z,62.24
2022-11-21T09:18:52.876Z,62.99
2022-11-21T09:21:23.728Z,60.75
2022-11-21T09:23:54.491Z,58.13
2022-11-21T09:26:25.261Z,57.99
2022-11-21T09:28:57.522Z,60.55
2022-11-21T09:31:28.005Z,62.73
2022-11-21T09:33:58.918Z,63.41
2022-11-21T09:36:29.760Z,60.56
2022-11-21T09:39:00.658Z,57.83
2022-11-21T09:41:51.565Z,56.83
2022-11-21T09:44:27.506Z,58.74
2022-11-21T09:47:02.140Z,63.37
2022-11-21T09:49:36.636Z,62.33
2022-11-21T09:52:07.606Z,61.23
2022-11-21T09:54:43.366Z,58.84
2022-11-21T09:57:16.592Z,57.26
2022-11-21T09:59:47.810Z,60.71
2022-11-21T10:02:19.453Z,62.70
2022-11-21T10:04:50.592Z,64.56
2022-11-21T10:07:22.996Z,62.47
2022-11-21T10:10:04.541Z,59.89
2022-11-21T10:12:38.238Z,57.32
2022-11-21T10:15:25.260Z,59.73
2022-11-21T10:18:14.902Z,61.47
2022-11-21T10:20:51.757Z,64.88
2022-11-21T10:23:31.773Z,62.49
2022-11-21T10:26:09.018Z,61.63
2022-11-21T10:28:42.826Z,60.18
2022-11-21T10:31:14.616Z,57.11
2022-11-21T10:33:45.457Z,55.68
2022-11-21T10:36:21.122Z,58.47
2022-11-21T10:38:53.779Z,62.51
2022-11-21T10:41:25.678Z,64.42
2022-11-21T10:44:18.490Z,62.76
2022-11-21T10:46:57.130Z,59.77
2022-11-21T10:49:29.687Z,55.86
2022-11-21T10:52:03.354Z,56.60
2022-11-21T10:54:34.080Z,60.07
2022-11-21T10:57:08.377Z,64.04
2022-11-21T10:59:39.065Z,62.69
2022-11-21T11:05:20.744Z,57.70
2022-11-21T11:07:49.908Z,60.89
2022-11-21T11:10:27.468Z,62.83
2022-11-21T11:13:45.049Z,63.11
2022-11-21T11:16:08.583Z,60.57
2022-11-21T11:18:41.159Z,57.74
2022-11-21T11:21:17.058Z,58.84
2022-11-21T11:23:47.931Z,61.85
2022-11-21T11:26:26.183Z,63.91
2022-11-21T11:29:06.187Z,62.18
2022-11-21T11:31:42.583Z,59.63
2022-11-21T11:34:16.487Z,57.87
2022-11-21T11:36:55.927Z,59.34
2022-11-21T11:39:36.769Z,62.49
2022-11-21T11:42:34.277Z,63.16
2022-11-21T11:45:33.732Z,60.65
2022-11-21T11:48:09.195Z,56.68
2022-11-21T11:50:42.379Z,58.67
2022-11-21T11:53:15.686Z,62.63
2022-11-21T11:55:47.971Z,64.19
2022-11-21T11:58:23.089Z,63.08
2022-11-21T12:00:56.949Z,60.40
2022-11-21T12:03:31.945Z,57.51
2022-11-21T12:06:09.169Z,55.83
2022-11-21T12:08:53.231Z,57.00
2022-11-21T12:11:44.478Z,61.18
2022-11-21T12:14:40.582Z,64.00
2022-11-21T12:17:11.624Z,64.33
2022-11-21T12:19:42.465Z,61.51
2022-11-21T12:22:13.091Z,57.54
2022-11-21T12:24:44.033Z,56.02
2022-11-21T12:27:22.448Z,57.55
2022-11-21T12:30:00.059Z,58.31
2022-11-21T12:32:37.409Z,60.05
2022-11-21T12:35:17.188Z,64.84
2022-11-21T12:37:54.162Z,65.52
2022-11-21T12:40:30.926Z,62.21
2022-11-21T12:43:08.424Z,59.98
2022-11-21T12:45:41.424Z,56.82
2022-11-21T12:48:47.180Z,55.89
2022-11-21T12:51:51.944Z,56.78
2022-11-21T12:54:33.894Z,60.07
2022-11-21T12:57:10.346Z,64.78
2022-11-21T12:59:46.307Z,66.07
2022-11-21T13:02:23.486Z,63.15
2022-11-21T13:04:55.036Z,61.03
2022-11-21T13:07:26.781Z,57.10
2022-11-21T13:09:58.389Z,56.28
2022-11-21T13:12:32.361Z,57.90
2022-11-21T13:15:07.595Z,62.18
2022-11-21T13:17:45.462Z,64.52
2022-11-21T13:20:19.508Z,61.52
2022-11-21T13:22:54.564Z,58.53
2022-11-21T13:25:39.420Z,57.47
2022-11-21T13:28:30.152Z,60.08
2022-11-21T13:31:01.169Z,65.11
2022-11-21T13:33:48.488Z,65.20
2022-11-21T13:36:42.071Z,63.07
2022-11-21T13:39:35.399Z,60.51
2022-11-21T13:42:33.173Z,57.04
2022-11-21T13:45:21.669Z,57.53
2022-11-21T13:47:59.855Z,59.46
2022-11-21T13:50:38.213Z,60.67
2022-11-21T13:53:18.529Z,65.27
2022-11-21T13:55:56.569Z,66.58
2022-11-21T13:58:36.981Z,64.11
2022-11-21T14:01:17.315Z,61.89
2022-11-21T14:03:56.416Z,57.69
2022-11-21T14:06:44.727Z,56.05
2022-11-21T14:09:22.213Z,57.56
2022-11-21T14:11:54.726Z,60.65
2022-11-21T14:14:30.007Z,65.11
2022-11-21T14:17:06.623Z,66.03
2022-11-21T14:19:37.411Z,63.34
2022-11-21T14:22:15.368Z,60.36
2022-11-21T14:24:47.203Z,56.50
2022-11-21T14:27:26.397Z,56.83
2022-11-21T14:29:57.440Z,58.41
2022-11-21T14:32:31.856Z,60.22
2022-11-21T14:35:19.815Z,64.45
2022-11-21T14:37:51.039Z,65.77
2022-11-21T14:40:25.327Z,62.61
2022-11-21T14:42:56.047Z,59.75
2022-11-21T14:45:27.343Z,56.46
2022-11-21T14:47:57.715Z,57.43
2022-11-21T14:50:29.250Z,59.43
2022-11-21T14:53:00.700Z,61.17
2022-11-21T14:55:32.807Z,66.10
2022-11-21T14:58:04.996Z,67.59
2022-11-21T15:03:26.385Z,60.79
2022-11-21T15:06:04.626Z,57.94
2022-11-21T15:11:31.563Z,59.01
2022-11-21T15:14:19.776Z,60.96
2022-11-21T15:16:51.556Z,65.77
2022-11-21T15:19:23.797Z,67.71
2022-11-21T15:21:55.329Z,64.22
2022-11-21T15:24:33.476Z,61.10
2022-11-21T15:27:24.051Z,57.60
2022-11-21T15:30:03.382Z,58.41
2022-11-21T15:32:34.193Z,63.76
2022-11-21T15:35:18.093Z,64.18
2022-11-21T15:37:51.125Z,61.48
2022-11-21T15:40:22.120Z,59.88
2022-11-21T15:42:52.812Z,56.86
2022-11-21T15:45:26.203Z,57.24
2022-11-21T15:47:57.127Z,59.26
2022-11-21T15:50:27.590Z,61.06
2022-11-21T15:52:58.302Z,65.30
2022-11-21T15:55:30.443Z,66.10
2022-11-21T15:58:01.489Z,63.41
2022-11-21T16:00:32.028Z,61.53
2022-11-21T16:03:02.672Z,57.76
2022-11-21T16:05:33.539Z,58.35
2022-11-21T16:08:04.774Z,61.04
2022-11-21T16:10:36.351Z,64.53
2022-11-21T16:13:07.480Z,65.48
2022-11-21T16:15:38.001Z,62.79
2022-11-21T16:18:09.414Z,60.21
2022-11-21T16:20:39.943Z,57.45
2022-11-21T16:23:11.587Z,57.84
2022-11-21T16:25:52.681Z,60.05
2022-11-21T16:28:23.506Z,63.07
2022-11-21T16:30:54.413Z,66.89
2022-11-21T16:33:27.295Z,64.57
2022-11-21T16:35:58.109Z,61.56
2022-11-21T16:38:29.419Z,59.06
2022-11-21T16:41:00.666Z,56.57
2022-11-21T16:43:31.493Z,57.52
2022-11-21T16:46:07.677Z,59.42
2022-11-21T16:48:38.487Z,61.10
2022-11-21T16:51:13.639Z,66.29
2022-11-21T16:53:44.665Z,67.56
2022-11-21T16:56:15.507Z,64.41
2022-11-21T16:58:47.192Z,61.16
2022-11-21T17:01:18.577Z,59.15
2022-11-21T17:03:50.173Z,56.84
2022-11-21T17:06:22.802Z,58.02
2022-11-21T17:08:52.468Z,59.34
2022-11-21T17:11:24.278Z,58.74
2022-11-21T17:13:54.949Z,66.12
2022-11-21T17:16:25.800Z,67.47
2022-11-21T17:18:56.911Z,65.05
2022-11-21T17:21:28.259Z,63.57
2022-11-21T17:23:59.053Z,61.20
2022-11-21T17:26:30.951Z,57.53
2022-11-21T17:29:03.650Z,57.17
2022-11-21T17:31:34.671Z,58.99
2022-11-21T17:34:05.253Z,60.41
2022-11-21T17:36:35.832Z,65.17
2022-11-21T17:39:06.566Z,66.34
2022-11-21T17:41:38.313Z,63.03
2022-11-21T17:44:09.154Z,60.19
2022-11-21T17:46:40.105Z,56.99
2022-11-21T17:49:12.374Z,56.82
2022-11-21T17:51:43.346Z,58.86
2022-11-21T17:54:13.869Z,60.57
2022-11-21T17:56:48.131Z,63.75
2022-11-21T17:59:22.164Z,66.84
2022-11-21T18:01:53.279Z,64.43
2022-11-21T18:04:24.646Z,61.36
2022-11-21T18:06:55.742Z,60.56
2022-11-21T18:09:26.722Z,57.00
2022-11-21T18:11:58.125Z,56.60
2022-11-21T18:14:29.136Z,58.85
2022-11-21T18:17:00.211Z,60.18
2022-11-21T18:19:30.888Z,64.59
2022-11-21T18:22:01.621Z,65.49
2022-11-21T18:24:32.793Z,62.06
2022-11-21T18:27:03.799Z,60.42
2022-11-21T18:29:36.552Z,56.55
2022-11-21T18:32:08.249Z,56.81
2022-11-21T18:34:39.069Z,58.78
2022-11-21T18:37:10.875Z,60.41
2022-11-21T18:39:41.271Z,64.48
2022-11-21T18:42:12.000Z,65.48
2022-11-21T18:44:42.721Z,62.80
2022-11-21T18:47:20.530Z,59.97
2022-11-21T18:49:51.460Z,56.62
2022-11-21T18:52:22.403Z,56.85
2022-11-21T18:54:53.125Z,58.99
2022-11-21T18:57:24.289Z,60.08
2022-11-21T18:59:54.874Z,64.62
2022-11-21T19:02:25.564Z,65.88
2022-11-21T19:04:56.031Z,62.76
2022-11-21T19:07:26.684Z,61.14
2022-11-21T19:10:20.347Z,57.58
2022-11-21T19:12:47.763Z,58.19
2022-11-21T19:15:18.551Z,60.45
2022-11-21T19:17:49.129Z,64.74
2022-11-21T19:20:19.800Z,65.64
2022-11-21T19:22:50.506Z,63.18
2022-11-21T19:25:21.294Z,60.61
2022-11-21T19:27:51.898Z,57.67
2022-11-21T19:30:22.384Z,57.58
2022-11-21T19:32:53.087Z,60.32
2022-11-21T19:35:24.801Z,64.61
2022-11-21T19:37:55.764Z,65.83
2022-11-21T19:40:46.678Z,63.44
2022-11-21T19:43:17.312Z,62.62
2022-11-21T19:45:48.544Z,60.01
2022-11-21T19:48:19.052Z,57.67
2022-11-21T19:50:58.567Z,58.31
2022-11-21T19:53:29.763Z,59.55
2022-11-21T19:56:00.252Z,61.20
2022-11-21T19:58:32.304Z,66.73
2022-11-21T20:01:07.876Z,67.79
2022-11-21T20:03:38.841Z,64.28
2022-11-21T20:06:10.553Z,61.38
2022-11-21T20:08:40.936Z,60.36
2022-11-21T20:11:12.879Z,57.86
2022-11-21T20:13:44.607Z,57.15
2022-11-21T20:16:22.107Z,58.97
2022-11-21T20:18:57.374Z,62.55
2022-11-21T20:21:28.206Z,68.51
2022-11-21T20:23:59.139Z,66.19
2022-11-21T20:26:30.081Z,62.73
2022-11-21T20:29:04.816Z,61.10
2022-11-21T20:31:37.088Z,59.61
2022-11-21T20:34:08.655Z,56.50
2022-11-21T20:36:40.250Z,59.57
2022-11-21T20:39:13.889Z,63.43
2022-11-21T20:41:45.495Z,64.90
2022-11-21T20:47:08.839Z,59.18
2022-11-21T20:49:39.871Z,59.60
2022-11-21T20:55:01.919Z,66.33
2022-11-21T20:57:32.573Z,66.58
2022-11-21T21:00:03.447Z,64.69
2022-11-21T21:02:34.416Z,62.75
2022-11-21T21:05:06.207Z,61.44
2022-11-21T21:07:37.130Z,60.30
2022-11-21T21:10:09.898Z,58.40
2022-11-21T21:12:43.200Z,58.47
2022-11-21T21:15:18.305Z,59.62
2022-11-21T21:17:48.950Z,65.06
2022-11-21T21:20:19.757Z,65.43
2022-11-21T21:22:50.313Z,63.93
2022-11-21T21:25:21.046Z,61.86
2022-11-21T21:27:52.081Z,61.24
2022-11-21T21:30:22.924Z,59.27
2022-11-21T21:32:53.460Z,57.17
2022-11-21T21:35:24.175Z,59.16
2022-11-21T21:37:55.265Z,65.19
2022-11-21T21:40:26.069Z,63.76
2022-11-21T21:42:56.605Z,60.46
2022-11-21T21:45:27.471Z,59.90
2022-11-21T21:47:58.158Z,58.95
2022-11-21T21:50:29.197Z,58.69
2022-11-21T21:53:01.254Z,62.11
2022-11-21T21:55:32.514Z,66.39
2022-11-21T21:58:03.092Z,66.43
2022-11-21T22:00:34.238Z,62.99
2022-11-21T22:03:05.115Z,59.48
2022-11-21T22:05:35.801Z,58.87
2022-11-21T22:08:07.107Z,63.39
2022-11-21T22:10:37.898Z,65.44
2022-11-21T22:13:08.619Z,63.45
2022-11-21T22:15:39.544Z,62.14
2022-11-21T22:18:10.331Z,61.18
2022-11-21T22:20:40.820Z,59.89
2022-11-21T22:23:11.192Z,57.60
2022-11-21T22:25:41.971Z,60.02
2022-11-21T22:28:12.955Z,63.75
2022-11-21T22:30:43.792Z,65.08
2022-11-21T22:33:14.335Z,62.74
2022-11-21T22:35:45.065Z,61.68
2022-11-21T22:38:16.567Z,60.34
2022-11-21T22:40:47.551Z,58.13
2022-11-21T22:43:18.274Z,58.95
2022-11-21T22:45:48.948Z,62.78
2022-11-21T22:48:19.348Z,67.41
2022-11-21T22:50:50.169Z,65.24
2022-11-21T22:53:20.911Z,62.79
2022-11-21T22:55:59.046Z,60.79
2022-11-21T22:58:31.689Z,58.89
2022-11-21T23:01:02.465Z,58.69
2022-11-21T23:03:33.977Z,61.85
2022-11-21T23:06:05.386Z,66.17
2022-11-21T23:08:37.208Z,66.01
2022-11-21T23:11:08.689Z,63.02
2022-11-21T23:13:40.803Z,60.98
2022-11-21T23:16:12.240Z,59.73
2022-11-21T23:18:43.546Z,57.89
2022-11-21T23:21:15.041Z,59.15
2022-11-21T23:23:45.480Z,61.91
2022-11-21T23:26:16.397Z,67.16
2022-11-21T23:28:46.940Z,67.35
2022-11-21T23:31:17.479Z,64.70
2022-11-21T23:33:48.199Z,61.39
2022-11-21T23:36:19.252Z,59.38
2022-11-21T23:38:49.663Z,56.93
2022-11-21T23:41:20.342Z,58.62
2022-11-21T23:43:50.820Z,61.44
2022-11-21T23:46:22.135Z,64.20
2022-11-21T23:48:52.696Z,67.03
2022-11-21T23:51:23.327Z,64.97
2022-11-21T23:53:54.242Z,62.06
2022-11-21T23:56:24.998Z,59.89
2022-11-21T23:58:55.729Z,57.81
